Terminal Aerodrome Forecast
Issued by NWS Wakefield, VA

Home | Current Version | Previous Version | Text Only | Print | Product List | Glossary On
Versions: 1 2 3 4 5 6 7 8 9 10 11 12 13 14
475
FTUS41 KAKQ 211746
TAFSBY
TAF
KSBY 211746Z 2118/2218 18008KT P6SM SCT035
     FM220000 19003KT P6SM BKN050
     FM220700 19005KT 6SM HZ SCT050
     FM221300 21009KT P6SM SCT050=

USA.gov is the U.S. government's official web portal to all federal, state and local government web resources and services.